KOSU/OSU METAR and TAF weather

Enter ICAO airport designator
Station Type Date Time Source
KOSU METAR 2022/07/03 13:53 UTC NOAA

KOSU 031353Z 07005KT 10SM CLR 27/14 A3015 RMK AO2 SLP203 T02670144


Station Type Date Time Source
KOSU Decoded METAR 2022/07/03 13:53 UTC NOAA

OHIO STATE UNIVERSITY AIRPORT , OH, United States (KOSU) 40-05N 083-05W 280M
Jul 03, 2022 - 09:53 AM EDT / 2022.07.03 1353 UTC
Wind: from the ENE (070 degrees) at 6 MPH (5 KT):0
Visibility: 10 mile(s):0
Sky conditions: clear
Temperature: 80.1 F (26.7 C)
Dew Point: 57.9 F (14.4 C)
Relative Humidity: 46%
Pressure (altimeter): 30.15 in. Hg (1020 hPa)
ob: KOSU 031353Z 07005KT 10SM CLR 27/14 A3015 RMK AO2 SLP203 T02670144
cycle: 14

Station Type Date Time Source
KOSU TAF UTC NOAA

Error!

Example: see airport list